Terminal Aerodrome Forecast
Issued by NWS

Home | Current Version | Previous Version | Text Only | Print | Product List | Glossary On
Versions: 1 2 3 4 5 6 7 8 9 10 11 12 13
173
FTUS43 KSGF 140802 AAA
TAFBBG
TAF AMD
KBBG 140802Z 1408/1506 12010G15KT P6SM OVC035
     FM141000 12010G15KT P6SM OVC020
      TEMPO 1410/1413 5SM -FZRADZ BR BKN012 OVC020
     FM141300 16009KT 4SM -FZRADZ BKN008 OVC012
     FM141700 17005KT P6SM OVC008
     FM150000 VRB03KT P6SM OVC010=

USA.gov is the U.S. government's official web portal to all federal, state and local government web resources and services.